sensor_id;sensor_type;location;lat;lon;timestamp;P1;P2;P0
20157;PMS5003;10239;56.820;24.416;2022-09-28T00:01:16;2.20;2.20;2.00
20157;PMS5003;10239;56.820;24.416;2022-09-28T00:03:50;2.00;2.00;1.80
20157;PMS5003;10239;56.820;24.416;2022-09-28T00:06:21;1.60;1.60;1.00
20157;PMS5003;10239;56.820;24.416;2022-09-28T00:08:50;2.80;2.80;1.80
20157;PMS5003;10239;56.820;24.416;2022-09-28T00:11:19;2.20;2.20;1.00
20157;PMS5003;10239;56.820;24.416;2022-09-28T00:13:48;2.00;2.00;2.00
20157;PMS5003;10239;56.820;24.416;2022-09-28T00:16:20;2.80;2.80;2.00
20157;PMS5003;10239;56.820;24.416;2022-09-28T00:18:49;1.00;1.00;1.00
20157;PMS5003;10239;56.820;24.416;2022-09-28T00:21:19;1.60;1.60;1.60
20157;PMS5003;10239;56.820;24.416;2022-09-28T00:23:52;2.60;2.60;1.00
20157;PMS5003;10239;56.820;24.416;2022-09-28T00:26:42;0.40;0.40;0.20
20157;PMS5003;10239;56.820;24.416;2022-09-28T00:29:19;2.00;2.00;2.00
20157;PMS5003;10239;56.820;24.416;2022-09-28T00:31:47;1.00;1.00;1.00
20157;PMS5003;10239;56.820;24.416;2022-09-28T00:34:18;0.80;0.80;0.80
20157;PMS5003;10239;56.820;24.416;2022-09-28T00:36:46;1.20;1.20;1.00
20157;PMS5003;10239;56.820;24.416;2022-09-28T00:39:15;2.00;2.00;2.00
20157;PMS5003;10239;56.820;24.416;2022-09-28T00:41:44;1.60;1.60;1.00
20157;PMS5003;10239;56.820;24.416;2022-09-28T00:47:08;1.60;1.60;1.60
20157;PMS5003;10239;56.820;24.416;2022-09-28T00:52:45;3.00;3.00;3.00
20157;PMS5003;10239;56.820;24.416;2022-09-28T00:58:10;1.60;1.60;1.60
20157;PMS5003;10239;56.820;24.416;2022-09-28T01:00:42;1.40;1.40;1.40
20157;PMS5003;10239;56.820;24.416;2022-09-28T01:03:09;1.80;1.80;1.40
20157;PMS5003;10239;56.820;24.416;2022-09-28T01:05:39;1.40;1.40;1.00
20157;PMS5003;10239;56.820;24.416;2022-09-28T01:08:08;1.00;1.00;0.60
20157;PMS5003;10239;56.820;24.416;2022-09-28T01:10:37;2.00;2.00;1.80
20157;PMS5003;10239;56.820;24.416;2022-09-28T01:13:06;1.40;1.40;1.00
20157;PMS5003;10239;56.820;24.416;2022-09-28T01:15:35;1.00;1.00;1.00
20157;PMS5003;10239;56.820;24.416;2022-09-28T01:18:12;1.40;1.40;1.00
20157;PMS5003;10239;56.820;24.416;2022-09-28T01:26:58;2.00;2.00;1.00
20157;PMS5003;10239;56.820;24.416;2022-09-28T01:29:53;1.00;1.00;1.00
20157;PMS5003;10239;56.820;24.416;2022-09-28T01:35:06;2.20;2.20;1.00
20157;PMS5003;10239;56.820;24.416;2022-09-28T01:37:46;2.00;2.00;1.60
20157;PMS5003;10239;56.820;24.416;2022-09-28T01:40:36;1.20;1.20;1.20
20157;PMS5003;10239;56.820;24.416;2022-09-28T01:43:07;1.00;1.00;1.00
20157;PMS5003;10239;56.820;24.416;2022-09-28T01:45:44;1.00;1.00;1.00
20157;PMS5003;10239;56.820;24.416;2022-09-28T01:48:16;0.00;0.00;0.00
20157;PMS5003;10239;56.820;24.416;2022-09-28T01:50:51;1.00;1.00;1.00
20157;PMS5003;10239;56.820;24.416;2022-09-28T01:53:36;2.60;2.60;2.00
20157;PMS5003;10239;56.820;24.416;2022-09-28T01:59:32;2.00;2.00;1.00
20157;PMS5003;10239;56.820;24.416;2022-09-28T02:02:10;1.00;1.00;1.00
20157;PMS5003;10239;56.820;24.416;2022-09-28T02:04:45;0.40;0.40;0.00
20157;PMS5003;10239;56.820;24.416;2022-09-28T02:07:26;1.40;1.40;1.20
20157;PMS5003;10239;56.820;24.416;2022-09-28T02:10:06;1.00;1.00;1.00
20157;PMS5003;10239;56.820;24.416;2022-09-28T02:12:47;2.60;2.60;1.20
20157;PMS5003;10239;56.820;24.416;2022-09-28T02:15:25;1.00;1.00;1.00
20157;PMS5003;10239;56.820;24.416;2022-09-28T02:17:59;1.60;1.60;1.00
20157;PMS5003;10239;56.820;24.416;2022-09-28T02:20:28;2.00;2.00;1.20
20157;PMS5003;10239;56.820;24.416;2022-09-28T02:22:58;1.00;1.00;1.00
20157;PMS5003;10239;56.820;24.416;2022-09-28T02:25:29;1.20;1.20;1.00
20157;PMS5003;10239;56.820;24.416;2022-09-28T02:28:00;1.80;1.80;1.60
20157;PMS5003;10239;56.820;24.416;2022-09-28T02:30:34;1.20;1.20;1.00
20157;PMS5003;10239;56.820;24.416;2022-09-28T02:33:09;1.20;1.20;1.00
20157;PMS5003;10239;56.820;24.416;2022-09-28T02:35:42;2.00;2.00;1.60
20157;PMS5003;10239;56.820;24.416;2022-09-28T02:38:10;1.00;1.00;1.00
20157;PMS5003;10239;56.820;24.416;2022-09-28T02:40:41;1.00;1.00;1.00
20157;PMS5003;10239;56.820;24.416;2022-09-28T02:43:25;2.00;2.00;1.00
20157;PMS5003;10239;56.820;24.416;2022-09-28T02:46:31;2.00;2.00;1.60
20157;PMS5003;10239;56.820;24.416;2022-09-28T02:49:42;1.00;1.00;1.00
20157;PMS5003;10239;56.820;24.416;2022-09-28T02:52:31;1.60;1.60;1.00
20157;PMS5003;10239;56.820;24.416;2022-09-28T02:55:37;1.00;1.00;0.60
20157;PMS5003;10239;56.820;24.416;2022-09-28T03:07:05;0.40;0.40;0.00
20157;PMS5003;10239;56.820;24.416;2022-09-28T03:09:36;1.80;1.80;1.20
20157;PMS5003;10239;56.820;24.416;2022-09-28T03:12:09;1.40;1.40;1.00
20157;PMS5003;10239;56.820;24.416;2022-09-28T03:14:40;1.00;1.00;1.00
20157;PMS5003;10239;56.820;24.416;2022-09-28T03:17:08;1.20;1.20;1.00
20157;PMS5003;10239;56.820;24.416;2022-09-28T03:19:36;1.20;1.20;1.00
20157;PMS5003;10239;56.820;24.416;2022-09-28T03:22:04;1.40;1.40;1.00
20157;PMS5003;10239;56.820;24.416;2022-09-28T03:24:31;1.20;1.20;1.00
20157;PMS5003;10239;56.820;24.416;2022-09-28T03:27:00;0.60;0.60;0.40
20157;PMS5003;10239;56.820;24.416;2022-09-28T03:29:28;0.80;0.80;0.60
20157;PMS5003;10239;56.820;24.416;2022-09-28T03:32:00;0.60;0.60;0.60
20157;PMS5003;10239;56.820;24.416;2022-09-28T03:34:28;2.00;2.00;1.40
20157;PMS5003;10239;56.820;24.416;2022-09-28T03:36:55;1.00;1.00;1.00
20157;PMS5003;10239;56.820;24.416;2022-09-28T03:39:23;0.00;0.00;0.00
20157;PMS5003;10239;56.820;24.416;2022-09-28T03:41:51;0.00;0.00;0.00
20157;PMS5003;10239;56.820;24.416;2022-09-28T03:44:20;0.00;0.00;0.00
20157;PMS5003;10239;56.820;24.416;2022-09-28T03:46:48;1.00;1.00;1.00
20157;PMS5003;10239;56.820;24.416;2022-09-28T03:49:16;0.00;0.00;0.00
20157;PMS5003;10239;56.820;24.416;2022-09-28T03:51:44;1.00;1.00;1.00
20157;PMS5003;10239;56.820;24.416;2022-09-28T03:54:12;1.00;1.00;1.00
20157;PMS5003;10239;56.820;24.416;2022-09-28T03:56:40;1.60;1.60;1.00
20157;PMS5003;10239;56.820;24.416;2022-09-28T03:59:08;1.00;1.00;1.00
20157;PMS5003;10239;56.820;24.416;2022-09-28T04:01:36;1.60;1.60;1.00
20157;PMS5003;10239;56.820;24.416;2022-09-28T04:04:03;1.00;1.00;0.40
20157;PMS5003;10239;56.820;24.416;2022-09-28T04:06:31;1.00;1.00;0.40
20157;PMS5003;10239;56.820;24.416;2022-09-28T04:08:58;1.00;1.00;0.00
20157;PMS5003;10239;56.820;24.416;2022-09-28T04:11:27;0.60;0.60;0.60
20157;PMS5003;10239;56.820;24.416;2022-09-28T04:14:15;1.00;1.00;0.40
20157;PMS5003;10239;56.820;24.416;2022-09-28T04:16:42;0.00;0.00;0.00
20157;PMS5003;10239;56.820;24.416;2022-09-28T04:19:14;1.60;1.60;1.00
20157;PMS5003;10239;56.820;24.416;2022-09-28T04:21:57;1.00;1.00;1.00
20157;PMS5003;10239;56.820;24.416;2022-09-28T04:24:25;0.60;0.60;0.60
20157;PMS5003;10239;56.820;24.416;2022-09-28T04:26:52;1.40;1.40;1.00
20157;PMS5003;10239;56.820;24.416;2022-09-28T04:29:40;1.00;1.00;1.00
20157;PMS5003;10239;56.820;24.416;2022-09-28T04:32:11;2.00;2.00;1.00
20157;PMS5003;10239;56.820;24.416;2022-09-28T04:34:39;0.40;0.40;0.40
20157;PMS5003;10239;56.820;24.416;2022-09-28T04:37:10;2.00;2.00;2.00
20157;PMS5003;10239;56.820;24.416;2022-09-28T04:39:38;2.00;2.00;1.00
20157;PMS5003;10239;56.820;24.416;2022-09-28T04:42:17;1.00;1.00;1.00
20157;PMS5003;10239;56.820;24.416;2022-09-28T04:44:47;0.80;0.80;0.80
20157;PMS5003;10239;56.820;24.416;2022-09-28T04:47:15;1.00;1.00;1.00
20157;PMS5003;10239;56.820;24.416;2022-09-28T04:50:10;1.00;1.00;1.00
20157;PMS5003;10239;56.820;24.416;2022-09-28T04:52:59;0.60;0.60;0.60
20157;PMS5003;10239;56.820;24.416;2022-09-28T04:55:27;1.00;1.00;1.00
20157;PMS5003;10239;56.820;24.416;2022-09-28T04:57:58;1.40;1.40;1.00
20157;PMS5003;10239;56.820;24.416;2022-09-28T05:00:29;1.00;1.00;1.00
20157;PMS5003;10239;56.820;24.416;2022-09-28T05:03:11;1.00;1.00;0.40
20157;PMS5003;10239;56.820;24.416;2022-09-28T05:06:05;1.00;1.00;1.00
20157;PMS5003;10239;56.820;24.416;2022-09-28T05:08:41;3.00;3.00;1.40
20157;PMS5003;10239;56.820;24.416;2022-09-28T05:11:11;1.00;1.00;1.00
20157;PMS5003;10239;56.820;24.416;2022-09-28T05:13:41;1.00;1.00;0.20
20157;PMS5003;10239;56.820;24.416;2022-09-28T05:16:39;0.80;0.80;0.80
20157;PMS5003;10239;56.820;24.416;2022-09-28T05:19:27;1.00;1.00;1.00
20157;PMS5003;10239;56.820;24.416;2022-09-28T05:22:17;1.00;1.00;1.00
20157;PMS5003;10239;56.820;24.416;2022-09-28T05:25:47;1.00;1.00;1.00
20157;PMS5003;10239;56.820;24.416;2022-09-28T05:28:23;1.80;1.80;1.00
20157;PMS5003;10239;56.820;24.416;2022-09-28T05:31:12;1.00;1.00;1.00
20157;PMS5003;10239;56.820;24.416;2022-09-28T05:34:05;2.00;2.00;1.00
20157;PMS5003;10239;56.820;24.416;2022-09-28T05:36:33;1.80;1.80;1.80
20157;PMS5003;10239;56.820;24.416;2022-09-28T05:39:01;1.50;1.50;1.50
20157;PMS5003;10239;56.820;24.416;2022-09-28T05:41:30;2.75;2.75;2.00
20157;PMS5003;10239;56.820;24.416;2022-09-28T05:43:58;1.75;1.75;1.25
20157;PMS5003;10239;56.820;24.416;2022-09-28T05:46:28;2.00;2.00;1.00
20157;PMS5003;10239;56.820;24.416;2022-09-28T05:49:00;1.25;1.25;1.00
20157;PMS5003;10239;56.820;24.416;2022-09-28T05:51:28;2.00;2.00;1.75
20157;PMS5003;10239;56.820;24.416;2022-09-28T05:53:56;1.00;1.00;1.00
20157;PMS5003;10239;56.820;24.416;2022-09-28T05:56:30;1.75;1.75;1.00
20157;PMS5003;10239;56.820;24.416;2022-09-28T05:59:01;1.00;1.00;0.50
20157;PMS5003;10239;56.820;24.416;2022-09-28T06:01:31;3.00;3.00;2.00
20157;PMS5003;10239;56.820;24.416;2022-09-28T06:04:00;1.00;1.00;1.00
20157;PMS5003;10239;56.820;24.416;2022-09-28T06:06:27;3.50;2.00;2.00
20157;PMS5003;10239;56.820;24.416;2022-09-28T06:08:55;2.00;2.00;1.25
20157;PMS5003;10239;56.820;24.416;2022-09-28T06:11:33;1.25;1.25;0.50
20157;PMS5003;10239;56.820;24.416;2022-09-28T06:14:09;0.75;0.75;0.75
20157;PMS5003;10239;56.820;24.416;2022-09-28T06:16:40;2.00;2.00;1.25
20157;PMS5003;10239;56.820;24.416;2022-09-28T06:19:11;2.00;2.00;2.00
20157;PMS5003;10239;56.820;24.416;2022-09-28T06:22:05;1.50;1.50;1.00
20157;PMS5003;10239;56.820;24.416;2022-09-28T06:24:42;2.00;2.00;1.25
20157;PMS5003;10239;56.820;24.416;2022-09-28T06:27:10;1.00;1.00;1.00
20157;PMS5003;10239;56.820;24.416;2022-09-28T06:29:38;1.00;1.00;1.00
20157;PMS5003;10239;56.820;24.416;2022-09-28T06:32:05;1.50;1.50;1.00
20157;PMS5003;10239;56.820;24.416;2022-09-28T06:34:35;0.75;0.75;0.25
20157;PMS5003;10239;56.820;24.416;2022-09-28T06:37:03;1.00;1.00;0.75
20157;PMS5003;10239;56.820;24.416;2022-09-28T06:39:31;1.00;1.00;1.00
20157;PMS5003;10239;56.820;24.416;2022-09-28T06:41:59;1.00;1.00;1.00
20157;PMS5003;10239;56.820;24.416;2022-09-28T06:44:49;3.00;3.00;2.00
20157;PMS5003;10239;56.820;24.416;2022-09-28T06:47:40;1.00;1.00;1.00
20157;PMS5003;10239;56.820;24.416;2022-09-28T06:50:35;1.00;1.00;1.00
20157;PMS5003;10239;56.820;24.416;2022-09-28T06:53:22;1.25;1.25;0.75
20157;PMS5003;10239;56.820;24.416;2022-09-28T06:55:55;1.25;1.25;1.25
20157;PMS5003;10239;56.820;24.416;2022-09-28T06:58:23;0.50;0.50;0.50
20157;PMS5003;10239;56.820;24.416;2022-09-28T07:00:55;1.00;1.00;1.00
20157;PMS5003;10239;56.820;24.416;2022-09-28T07:03:32;1.25;1.25;1.00
20157;PMS5003;10239;56.820;24.416;2022-09-28T07:06:23;2.00;2.00;1.25
20157;PMS5003;10239;56.820;24.416;2022-09-28T07:09:24;1.00;1.00;0.50
20157;PMS5003;10239;56.820;24.416;2022-09-28T07:12:25;2.75;2.75;2.00
20157;PMS5003;10239;56.820;24.416;2022-09-28T07:15:13;2.00;2.00;2.00
20157;PMS5003;10239;56.820;24.416;2022-09-28T07:17:40;1.50;1.50;1.25
20157;PMS5003;10239;56.820;24.416;2022-09-28T07:20:23;1.50;1.50;1.50
20157;PMS5003;10239;56.820;24.416;2022-09-28T07:22:52;1.75;1.75;1.00
20157;PMS5003;10239;56.820;24.416;2022-09-28T07:25:52;1.25;1.25;1.00
20157;PMS5003;10239;56.820;24.416;2022-09-28T07:28:31;2.00;2.00;2.00
20157;PMS5003;10239;56.820;24.416;2022-09-28T07:31:19;0.00;0.00;0.00
20157;PMS5003;10239;56.820;24.416;2022-09-28T07:34:11;2.25;2.25;2.00
20157;PMS5003;10239;56.820;24.416;2022-09-28T07:36:58;1.00;1.00;1.00
20157;PMS5003;10239;56.820;24.416;2022-09-28T07:39:27;0.50;0.50;0.00
20157;PMS5003;10239;56.820;24.416;2022-09-28T07:41:55;2.00;2.00;2.00
20157;PMS5003;10239;56.820;24.416;2022-09-28T07:44:29;1.00;1.00;1.00
20157;PMS5003;10239;56.820;24.416;2022-09-28T07:46:57;2.25;2.25;2.00
20157;PMS5003;10239;56.820;24.416;2022-09-28T07:49:45;2.25;2.25;2.00
20157;PMS5003;10239;56.820;24.416;2022-09-28T07:52:25;1.50;1.50;1.00
20157;PMS5003;10239;56.820;24.416;2022-09-28T07:55:15;1.50;1.50;1.50
20157;PMS5003;10239;56.820;24.416;2022-09-28T07:57:56;3.25;3.25;2.00
20157;PMS5003;10239;56.820;24.416;2022-09-28T08:00:53;1.75;1.75;1.00
20157;PMS5003;10239;56.820;24.416;2022-09-28T08:03:22;1.75;1.75;0.75
20157;PMS5003;10239;56.820;24.416;2022-09-28T08:05:55;1.75;1.75;1.25
20157;PMS5003;10239;56.820;24.416;2022-09-28T08:08:27;1.00;1.00;0.75
20157;PMS5003;10239;56.820;24.416;2022-09-28T08:10:56;1.00;1.00;1.00
20157;PMS5003;10239;56.820;24.416;2022-09-28T08:14:00;0.25;0.25;0.00
20157;PMS5003;10239;56.820;24.416;2022-09-28T08:16:46;1.00;1.00;0.75
20157;PMS5003;10239;56.820;24.416;2022-09-28T08:19:32;2.00;2.00;1.00
20157;PMS5003;10239;56.820;24.416;2022-09-28T08:22:18;0.00;0.00;0.00
20157;PMS5003;10239;56.820;24.416;2022-09-28T08:24:49;2.50;2.50;2.00
20157;PMS5003;10239;56.820;24.416;2022-09-28T08:27:16;2.75;2.75;2.00
20157;PMS5003;10239;56.820;24.416;2022-09-28T08:29:44;1.00;1.00;1.00
20157;PMS5003;10239;56.820;24.416;2022-09-28T08:32:32;2.00;2.00;1.20
20157;PMS5003;10239;56.820;24.416;2022-09-28T08:35:18;1.00;1.00;1.00
20157;PMS5003;10239;56.820;24.416;2022-09-28T08:38:05;0.00;0.00;0.00
20157;PMS5003;10239;56.820;24.416;2022-09-28T08:40:57;0.00;0.00;0.00
20157;PMS5003;10239;56.820;24.416;2022-09-28T08:44:23;0.00;0.00;0.00
20157;PMS5003;10239;56.820;24.416;2022-09-28T08:47:15;0.00;0.00;0.00
20157;PMS5003;10239;56.820;24.416;2022-09-28T08:50:32;1.00;1.00;0.60
20157;PMS5003;10239;56.820;24.416;2022-09-28T08:53:34;1.40;1.40;1.00
20157;PMS5003;10239;56.820;24.416;2022-09-28T08:59:02;1.00;1.00;0.00
20157;PMS5003;10239;56.820;24.416;2022-09-28T09:01:46;1.00;1.00;0.80
20157;PMS5003;10239;56.820;24.416;2022-09-28T09:04:26;1.00;1.00;1.00
20157;PMS5003;10239;56.820;24.416;2022-09-28T09:18:53;1.00;1.00;1.00
20157;PMS5003;10239;56.820;24.416;2022-09-28T09:21:40;0.00;0.00;0.00
20157;PMS5003;10239;56.820;24.416;2022-09-28T09:30:15;0.20;0.20;0.20
20157;PMS5003;10239;56.820;24.416;2022-09-28T09:39:47;1.00;1.00;1.00
20157;PMS5003;10239;56.820;24.416;2022-09-28T09:46:22;0.00;0.00;0.00
20157;PMS5003;10239;56.820;24.416;2022-09-28T09:49:49;0.00;0.00;0.00
20157;PMS5003;10239;56.820;24.416;2022-09-28T09:52:42;0.00;0.00;0.00
20157;PMS5003;10239;56.820;24.416;2022-09-28T09:58:19;0.00;0.00;0.00
20157;PMS5003;10239;56.820;24.416;2022-09-28T10:01:07;0.25;0.25;0.25
20157;PMS5003;10239;56.820;24.416;2022-09-28T10:04:22;0.00;0.00;0.00
20157;PMS5003;10239;56.820;24.416;2022-09-28T10:07:04;0.00;0.00;0.00
20157;PMS5003;10239;56.820;24.416;2022-09-28T10:09:40;0.50;0.50;0.00
20157;PMS5003;10239;56.820;24.416;2022-09-28T10:12:30;0.50;0.50;0.50
20157;PMS5003;10239;56.820;24.416;2022-09-28T10:14:59;0.00;0.00;0.00
20157;PMS5003;10239;56.820;24.416;2022-09-28T10:17:31;0.00;0.00;0.00
20157;PMS5003;10239;56.820;24.416;2022-09-28T10:20:30;0.50;0.50;0.50
20157;PMS5003;10239;56.820;24.416;2022-09-28T10:23:52;1.00;1.00;1.00
20157;PMS5003;10239;56.820;24.416;2022-09-28T10:26:17;0.25;0.25;0.00
20157;PMS5003;10239;56.820;24.416;2022-09-28T10:29:04;0.00;0.00;0.00
20157;PMS5003;10239;56.820;24.416;2022-09-28T10:31:46;1.00;1.00;1.00
20157;PMS5003;10239;56.820;24.416;2022-09-28T10:34:26;0.75;0.75;0.50
20157;PMS5003;10239;56.820;24.416;2022-09-28T10:37:03;1.00;1.00;0.75
20157;PMS5003;10239;56.820;24.416;2022-09-28T10:39:54;1.00;1.00;0.00
20157;PMS5003;10239;56.820;24.416;2022-09-28T10:42:29;0.00;0.00;0.00
20157;PMS5003;10239;56.820;24.416;2022-09-28T10:45:20;0.75;0.75;0.50
20157;PMS5003;10239;56.820;24.416;2022-09-28T10:47:52;0.50;0.50;0.50
20157;PMS5003;10239;56.820;24.416;2022-09-28T10:50:24;1.00;1.00;1.00
20157;PMS5003;10239;56.820;24.416;2022-09-28T10:53:09;1.00;1.00;1.00
20157;PMS5003;10239;56.820;24.416;2022-09-28T10:56:21;1.00;1.00;1.00
20157;PMS5003;10239;56.820;24.416;2022-09-28T10:59:00;0.00;0.00;0.00
20157;PMS5003;10239;56.820;24.416;2022-09-28T11:01:41;0.00;0.00;0.00
20157;PMS5003;10239;56.820;24.416;2022-09-28T11:04:17;0.25;0.25;0.00
20157;PMS5003;10239;56.820;24.416;2022-09-28T11:06:48;1.00;1.00;1.00
20157;PMS5003;10239;56.820;24.416;2022-09-28T11:12:12;0.25;0.25;0.25
20157;PMS5003;10239;56.820;24.416;2022-09-28T11:14:42;0.00;0.00;0.00
20157;PMS5003;10239;56.820;24.416;2022-09-28T11:19:59;0.50;0.50;0.00
20157;PMS5003;10239;56.820;24.416;2022-09-28T11:25:30;0.50;0.50;0.50
20157;PMS5003;10239;56.820;24.416;2022-09-28T11:27:59;1.00;1.00;0.25
20157;PMS5003;10239;56.820;24.416;2022-09-28T11:30:44;1.00;1.00;1.00
20157;PMS5003;10239;56.820;24.416;2022-09-28T11:33:38;1.00;1.00;1.00
20157;PMS5003;10239;56.820;24.416;2022-09-28T11:40:11;1.00;1.00;1.00
20157;PMS5003;10239;56.820;24.416;2022-09-28T11:45:50;1.00;1.00;1.00
20157;PMS5003;10239;56.820;24.416;2022-09-28T11:48:40;0.00;0.00;0.00
20157;PMS5003;10239;56.820;24.416;2022-09-28T11:51:20;1.00;1.00;0.00
20157;PMS5003;10239;56.820;24.416;2022-09-28T11:53:54;1.00;1.00;1.00
20157;PMS5003;10239;56.820;24.416;2022-09-28T11:56:49;0.50;0.50;0.50
20157;PMS5003;10239;56.820;24.416;2022-09-28T11:59:32;0.00;0.00;0.00
20157;PMS5003;10239;56.820;24.416;2022-09-28T12:02:16;1.00;1.00;0.50
20157;PMS5003;10239;56.820;24.416;2022-09-28T12:05:01;1.00;1.00;1.00
20157;PMS5003;10239;56.820;24.416;2022-09-28T12:07:50;1.00;1.00;0.50
20157;PMS5003;10239;56.820;24.416;2022-09-28T12:10:58;1.00;1.00;1.00
20157;PMS5003;10239;56.820;24.416;2022-09-28T12:14:09;1.00;1.00;1.00
20157;PMS5003;10239;56.820;24.416;2022-09-28T12:17:02;1.50;1.50;1.00
20157;PMS5003;10239;56.820;24.416;2022-09-28T12:19:41;1.25;1.25;1.00
20157;PMS5003;10239;56.820;24.416;2022-09-28T12:22:18;1.00;1.00;1.00
20157;PMS5003;10239;56.820;24.416;2022-09-28T12:24:51;1.00;1.00;1.00
20157;PMS5003;10239;56.820;24.416;2022-09-28T12:27:39;2.00;2.00;2.00
20157;PMS5003;10239;56.820;24.416;2022-09-28T12:30:15;1.50;1.50;1.25
20157;PMS5003;10239;56.820;24.416;2022-09-28T12:35:26;1.00;1.00;1.00
20157;PMS5003;10239;56.820;24.416;2022-09-28T12:40:55;1.50;1.50;1.00
20157;PMS5003;10239;56.820;24.416;2022-09-28T12:43:40;1.00;1.00;1.00
20157;PMS5003;10239;56.820;24.416;2022-09-28T12:52:39;3.00;3.00;2.00
20157;PMS5003;10239;56.820;24.416;2022-09-28T13:04:32;7.00;7.00;4.25
20157;PMS5003;10239;56.820;24.416;2022-09-28T13:10:10;8.50;8.50;4.75
20157;PMS5003;10239;56.820;24.416;2022-09-28T13:15:42;2.00;2.00;1.50
20157;PMS5003;10239;56.820;24.416;2022-09-28T13:18:21;3.00;3.00;2.00
20157;PMS5003;10239;56.820;24.416;2022-09-28T13:22:08;2.00;2.00;1.75
20157;PMS5003;10239;56.820;24.416;2022-09-28T13:24:52;2.00;2.00;2.00
20157;PMS5003;10239;56.820;24.416;2022-09-28T13:27:42;1.00;1.00;1.00
20157;PMS5003;10239;56.820;24.416;2022-09-28T13:30:16;1.00;1.00;1.00
20157;PMS5003;10239;56.820;24.416;2022-09-28T13:32:45;7.00;7.00;4.50
20157;PMS5003;10239;56.820;24.416;2022-09-28T13:35:15;1.25;1.25;1.25
20157;PMS5003;10239;56.820;24.416;2022-09-28T13:49:14;1.00;1.00;1.00
20157;PMS5003;10239;56.820;24.416;2022-09-28T13:57:26;1.00;1.00;1.00
20157;PMS5003;10239;56.820;24.416;2022-09-28T14:03:24;1.00;1.00;1.00
20157;PMS5003;10239;56.820;24.416;2022-09-28T14:08:44;1.00;1.00;1.00
20157;PMS5003;10239;56.820;24.416;2022-09-28T14:14:26;1.00;1.00;1.00
20157;PMS5003;10239;56.820;24.416;2022-09-28T14:25:42;1.00;1.00;1.00
20157;PMS5003;10239;56.820;24.416;2022-09-28T14:31:27;1.00;1.00;1.00
20157;PMS5003;10239;56.820;24.416;2022-09-28T14:33:57;0.25;0.25;0.00
20157;PMS5003;10239;56.820;24.416;2022-09-28T14:36:35;0.75;0.75;0.00
20157;PMS5003;10239;56.820;24.416;2022-09-28T14:39:28;3.00;3.00;1.00
20157;PMS5003;10239;56.820;24.416;2022-09-28T14:42:18;1.00;1.00;1.00
20157;PMS5003;10239;56.820;24.416;2022-09-28T14:47:39;2.00;2.00;1.00
20157;PMS5003;10239;56.820;24.416;2022-09-28T14:50:27;0.75;0.75;0.00
20157;PMS5003;10239;56.820;24.416;2022-09-28T14:52:56;1.75;1.75;1.00
20157;PMS5003;10239;56.820;24.416;2022-09-28T14:55:39;5.00;5.00;3.00
20157;PMS5003;10239;56.820;24.416;2022-09-28T14:58:21;6.25;4.00;3.00
20157;PMS5003;10239;56.820;24.416;2022-09-28T15:01:01;2.00;2.00;2.00
20157;PMS5003;10239;56.820;24.416;2022-09-28T15:03:32;2.25;2.25;1.00
20157;PMS5003;10239;56.820;24.416;2022-09-28T15:06:01;2.25;2.25;2.25
20157;PMS5003;10239;56.820;24.416;2022-09-28T15:08:35;3.00;3.00;2.00
20157;PMS5003;10239;56.820;24.416;2022-09-28T15:11:04;2.25;2.25;1.50
20157;PMS5003;10239;56.820;24.416;2022-09-28T15:13:36;2.50;2.50;2.00
20157;PMS5003;10239;56.820;24.416;2022-09-28T15:16:07;2.50;2.50;2.00
20157;PMS5003;10239;56.820;24.416;2022-09-28T15:21:17;2.40;2.40;2.20
20157;PMS5003;10239;56.820;24.416;2022-09-28T15:23:45;3.40;3.40;2.60
20157;PMS5003;10239;56.820;24.416;2022-09-28T15:26:29;5.00;5.00;4.00
20157;PMS5003;10239;56.820;24.416;2022-09-28T15:28:58;4.00;4.00;3.00
20157;PMS5003;10239;56.820;24.416;2022-09-28T15:31:33;4.40;4.40;3.40
20157;PMS5003;10239;56.820;24.416;2022-09-28T15:34:01;2.00;2.00;1.00
20157;PMS5003;10239;56.820;24.416;2022-09-28T15:36:47;4.00;4.00;3.20
20157;PMS5003;10239;56.820;24.416;2022-09-28T15:39:49;5.00;5.00;4.00
20157;PMS5003;10239;56.820;24.416;2022-09-28T15:42:10;5.00;5.00;3.20
20157;PMS5003;10239;56.820;24.416;2022-09-28T15:44:37;3.00;3.00;2.00
20157;PMS5003;10239;56.820;24.416;2022-09-28T15:47:12;4.00;4.00;3.00
20157;PMS5003;10239;56.820;24.416;2022-09-28T15:49:42;4.00;4.00;3.00
20157;PMS5003;10239;56.820;24.416;2022-09-28T15:52:38;5.20;5.20;3.00
20157;PMS5003;10239;56.820;24.416;2022-09-28T15:55:18;4.20;4.20;3.00
20157;PMS5003;10239;56.820;24.416;2022-09-28T16:00:32;3.20;3.20;2.20
20157;PMS5003;10239;56.820;24.416;2022-09-28T16:05:32;4.40;4.40;3.60
20157;PMS5003;10239;56.820;24.416;2022-09-28T16:13:52;4.00;4.00;2.80
20157;PMS5003;10239;56.820;24.416;2022-09-28T16:16:37;5.00;5.00;4.00
20157;PMS5003;10239;56.820;24.416;2022-09-28T16:19:27;4.40;4.40;3.60
20157;PMS5003;10239;56.820;24.416;2022-09-28T16:21:57;4.00;4.00;2.60
20157;PMS5003;10239;56.820;24.416;2022-09-28T16:24:32;1.00;1.00;1.00
20157;PMS5003;10239;56.820;24.416;2022-09-28T16:27:04;4.60;4.60;3.40
20157;PMS5003;10239;56.820;24.416;2022-09-28T16:30:00;4.40;4.40;3.00
20157;PMS5003;10239;56.820;24.416;2022-09-28T16:32:34;8.00;8.00;5.00
20157;PMS5003;10239;56.820;24.416;2022-09-28T16:35:21;14.60;14.60;9.20
20157;PMS5003;10239;56.820;24.416;2022-09-28T16:37:57;6.20;5.20;2.00
20157;PMS5003;10239;56.820;24.416;2022-09-28T16:40:30;5.80;5.80;4.20
20157;PMS5003;10239;56.820;24.416;2022-09-28T16:43:00;11.00;11.00;7.80
20157;PMS5003;10239;56.820;24.416;2022-09-28T16:45:30;10.80;10.80;7.00
20157;PMS5003;10239;56.820;24.416;2022-09-28T16:47:58;12.00;12.00;7.20
20157;PMS5003;10239;56.820;24.416;2022-09-28T16:50:26;14.00;12.20;9.20
20157;PMS5003;10239;56.820;24.416;2022-09-28T16:55:50;10.20;9.20;7.00
20157;PMS5003;10239;56.820;24.416;2022-09-28T16:58:18;11.00;11.00;8.00
20157;PMS5003;10239;56.820;24.416;2022-09-28T17:00:45;9.20;9.20;7.40
20157;PMS5003;10239;56.820;24.416;2022-09-28T17:03:14;7.80;7.80;4.60
20157;PMS5003;10239;56.820;24.416;2022-09-28T17:05:44;5.00;5.00;4.00
20157;PMS5003;10239;56.820;24.416;2022-09-28T17:08:14;6.00;6.00;4.60
20157;PMS5003;10239;56.820;24.416;2022-09-28T17:13:33;7.40;7.40;5.20
20157;PMS5003;10239;56.820;24.416;2022-09-28T17:16:03;11.80;11.80;8.00
20157;PMS5003;10239;56.820;24.416;2022-09-28T17:18:36;7.00;7.00;4.40
20157;PMS5003;10239;56.820;24.416;2022-09-28T17:21:08;8.60;8.60;5.40
20157;PMS5003;10239;56.820;24.416;2022-09-28T17:23:38;21.40;21.40;9.80
20157;PMS5003;10239;56.820;24.416;2022-09-28T17:26:05;14.80;14.80;8.80
20157;PMS5003;10239;56.820;24.416;2022-09-28T17:28:34;7.20;7.20;4.40
20157;PMS5003;10239;56.820;24.416;2022-09-28T17:31:02;8.00;8.00;4.80
20157;PMS5003;10239;56.820;24.416;2022-09-28T17:33:32;9.40;9.40;5.40
20157;PMS5003;10239;56.820;24.416;2022-09-28T17:36:00;5.00;5.00;4.00
20157;PMS5003;10239;56.820;24.416;2022-09-28T17:38:30;8.00;8.00;5.40
20157;PMS5003;10239;56.820;24.416;2022-09-28T17:40:58;14.00;14.00;8.00
20157;PMS5003;10239;56.820;24.416;2022-09-28T17:43:25;10.80;10.80;7.00
20157;PMS5003;10239;56.820;24.416;2022-09-28T17:45:53;24.20;23.40;11.80
20157;PMS5003;10239;56.820;24.416;2022-09-28T17:48:20;27.00;23.60;14.40
20157;PMS5003;10239;56.820;24.416;2022-09-28T17:50:50;20.00;20.00;10.20
20157;PMS5003;10239;56.820;24.416;2022-09-28T17:53:17;14.20;14.20;9.00
20157;PMS5003;10239;56.820;24.416;2022-09-28T17:55:45;22.40;21.40;14.40